sensor_id;sensor_type;location;lat;lon;timestamp;temperature;humidity
70089;HTU21D;57460;47.134;19.888;2023-06-24T03:42:22;18.49;86.94
70089;HTU21D;57460;47.134;19.888;2023-06-24T03:44:59;18.70;86.77
70089;HTU21D;57460;47.134;19.888;2023-06-24T03:47:57;18.93;85.98
70089;HTU21D;57460;47.134;19.888;2023-06-24T03:50:24;19.13;85.77
70089;HTU21D;57460;47.134;19.888;2023-06-24T03:52:52;19.26;85.40
70089;HTU21D;57460;47.134;19.888;2023-06-24T03:55:19;19.42;85.06
70089;HTU21D;57460;47.134;19.888;2023-06-24T03:57:49;19.46;83.24
70089;HTU21D;57460;47.134;19.888;2023-06-24T04:00:28;19.60;84.18
70089;HTU21D;57460;47.134;19.888;2023-06-24T04:03:07;19.66;83.17
70089;HTU21D;57460;47.134;19.888;2023-06-24T04:05:37;19.72;81.46
70089;HTU21D;57460;47.134;19.888;2023-06-24T04:08:11;19.88;83.36
70089;HTU21D;57460;47.134;19.888;2023-06-24T04:10:38;19.98;82.66
70089;HTU21D;57460;47.134;19.888;2023-06-24T04:16:30;20.14;81.17
70089;HTU21D;57460;47.134;19.888;2023-06-24T04:19:07;20.26;82.34
70089;HTU21D;57460;47.134;19.888;2023-06-24T04:21:43;20.33;80.65
70089;HTU21D;57460;47.134;19.888;2023-06-24T04:24:11;20.43;79.97
70089;HTU21D;57460;47.134;19.888;2023-06-24T04:26:37;20.50;78.81
70089;HTU21D;57460;47.134;19.888;2023-06-24T04:29:05;20.45;77.15
70089;HTU21D;57460;47.134;19.888;2023-06-24T04:31:32;20.46;78.61
70089;HTU21D;57460;47.134;19.888;2023-06-24T04:33:59;20.49;79.01
70089;HTU21D;57460;47.134;19.888;2023-06-24T04:36:29;20.56;78.84
70089;HTU21D;57460;47.134;19.888;2023-06-24T04:38:55;20.62;77.47
70089;HTU21D;57460;47.134;19.888;2023-06-24T04:41:22;20.60;76.74
70089;HTU21D;57460;47.134;19.888;2023-06-24T04:43:49;20.71;78.48
70089;HTU21D;57460;47.134;19.888;2023-06-24T04:46:24;20.72;77.63
70089;HTU21D;57460;47.134;19.888;2023-06-24T04:49:00;20.80;78.21
70089;HTU21D;57460;47.134;19.888;2023-06-24T04:51:37;20.85;78.02
70089;HTU21D;57460;47.134;19.888;2023-06-24T04:54:18;20.99;78.06
70089;HTU21D;57460;47.134;19.888;2023-06-24T04:57:23;20.98;76.38
70089;HTU21D;57460;47.134;19.888;2023-06-24T04:59:48;21.02;76.67
70089;HTU21D;57460;47.134;19.888;2023-06-24T05:02:22;21.13;77.75
70089;HTU21D;57460;47.134;19.888;2023-06-24T05:04:55;21.07;74.28
70089;HTU21D;57460;47.134;19.888;2023-06-24T05:07:41;21.13;75.33
70089;HTU21D;57460;47.134;19.888;2023-06-24T05:10:07;21.15;73.80
70089;HTU21D;57460;47.134;19.888;2023-06-24T05:12:32;21.29;76.60
70089;HTU21D;57460;47.134;19.888;2023-06-24T05:14:58;21.49;77.03
70089;HTU21D;57460;47.134;19.888;2023-06-24T05:17:24;21.63;75.68
70089;HTU21D;57460;47.134;19.888;2023-06-24T05:19:50;21.55;72.70
70089;HTU21D;57460;47.134;19.888;2023-06-24T05:22:16;21.63;72.98
70089;HTU21D;57460;47.134;19.888;2023-06-24T05:24:42;21.67;72.95
70089;HTU21D;57460;47.134;19.888;2023-06-24T05:27:09;21.72;72.67
70089;HTU21D;57460;47.134;19.888;2023-06-24T05:29:35;21.82;73.30
70089;HTU21D;57460;47.134;19.888;2023-06-24T05:32:01;21.87;70.00
70089;HTU21D;57460;47.134;19.888;2023-06-24T05:34:29;21.91;71.10
70089;HTU21D;57460;47.134;19.888;2023-06-24T05:36:56;21.99;72.35
70089;HTU21D;57460;47.134;19.888;2023-06-24T05:39:22;22.08;72.46
70089;HTU21D;57460;47.134;19.888;2023-06-24T05:41:47;22.12;68.38
70089;HTU21D;57460;47.134;19.888;2023-06-24T05:44:16;22.21;69.99
70089;HTU21D;57460;47.134;19.888;2023-06-24T05:46:44;22.24;71.21
70089;HTU21D;57460;47.134;19.888;2023-06-24T05:49:10;22.21;68.78
70089;HTU21D;57460;47.134;19.888;2023-06-24T05:51:38;22.21;70.60
70089;HTU21D;57460;47.134;19.888;2023-06-24T05:54:04;22.27;70.12
70089;HTU21D;57460;47.134;19.888;2023-06-24T05:56:33;22.32;70.59
70089;HTU21D;57460;47.134;19.888;2023-06-24T05:58:59;22.40;71.58
70089;HTU21D;57460;47.134;19.888;2023-06-24T06:01:26;22.51;71.07
70089;HTU21D;57460;47.134;19.888;2023-06-24T06:03:53;22.56;71.00
70089;HTU21D;57460;47.134;19.888;2023-06-24T06:06:19;22.71;70.62
70089;HTU21D;57460;47.134;19.888;2023-06-24T06:08:45;22.81;70.32
70089;HTU21D;57460;47.134;19.888;2023-06-24T06:11:12;22.96;69.01
70089;HTU21D;57460;47.134;19.888;2023-06-24T06:13:38;22.97;66.75
70089;HTU21D;57460;47.134;19.888;2023-06-24T06:16:04;23.06;68.70
70089;HTU21D;57460;47.134;19.888;2023-06-24T06:18:30;23.14;66.94
70089;HTU21D;57460;47.134;19.888;2023-06-24T06:20:56;23.27;68.19
70089;HTU21D;57460;47.134;19.888;2023-06-24T06:23:24;23.40;68.71
70089;HTU21D;57460;47.134;19.888;2023-06-24T06:25:51;23.47;67.86
70089;HTU21D;57460;47.134;19.888;2023-06-24T06:28:18;23.67;67.06
70089;HTU21D;57460;47.134;19.888;2023-06-24T06:30:45;23.68;65.53
70089;HTU21D;57460;47.134;19.888;2023-06-24T06:33:11;23.77;63.97
70089;HTU21D;57460;47.134;19.888;2023-06-24T06:35:37;23.89;65.05
70089;HTU21D;57460;47.134;19.888;2023-06-24T06:38:04;23.88;63.83
70089;HTU21D;57460;47.134;19.888;2023-06-24T06:40:30;23.99;65.24
70089;HTU21D;57460;47.134;19.888;2023-06-24T06:42:56;24.16;65.75
70089;HTU21D;57460;47.134;19.888;2023-06-24T06:45:22;24.28;64.00
70089;HTU21D;57460;47.134;19.888;2023-06-24T06:47:49;24.39;64.50
70089;HTU21D;57460;47.134;19.888;2023-06-24T06:50:16;24.55;64.19
70089;HTU21D;57460;47.134;19.888;2023-06-24T06:52:45;24.72;63.63
70089;HTU21D;57460;47.134;19.888;2023-06-24T06:55:11;24.80;63.23
70089;HTU21D;57460;47.134;19.888;2023-06-24T06:57:37;24.80;58.81
70089;HTU21D;57460;47.134;19.888;2023-06-24T07:00:03;24.91;62.43
70089;HTU21D;57460;47.134;19.888;2023-06-24T07:02:29;25.02;62.74
70089;HTU21D;57460;47.134;19.888;2023-06-24T07:04:55;25.08;62.24
70089;HTU21D;57460;47.134;19.888;2023-06-24T07:07:21;25.18;61.39
70089;HTU21D;57460;47.134;19.888;2023-06-24T07:09:47;25.25;60.68
70089;HTU21D;57460;47.134;19.888;2023-06-24T07:12:14;25.45;61.45
70089;HTU21D;57460;47.134;19.888;2023-06-24T07:14:40;25.51;59.34
70089;HTU21D;57460;47.134;19.888;2023-06-24T07:17:07;25.58;60.16
70089;HTU21D;57460;47.134;19.888;2023-06-24T07:19:33;25.58;60.07
70089;HTU21D;57460;47.134;19.888;2023-06-24T07:21:59;25.62;59.70
70089;HTU21D;57460;47.134;19.888;2023-06-24T07:24:25;25.60;58.38
70089;HTU21D;57460;47.134;19.888;2023-06-24T07:26:51;25.80;59.32
70089;HTU21D;57460;47.134;19.888;2023-06-24T07:29:19;25.89;59.19
70089;HTU21D;57460;47.134;19.888;2023-06-24T07:31:46;25.86;58.55
70089;HTU21D;57460;47.134;19.888;2023-06-24T07:34:12;26.03;59.09
70089;HTU21D;57460;47.134;19.888;2023-06-24T07:36:39;26.18;57.82
70089;HTU21D;57460;47.134;19.888;2023-06-24T07:39:07;26.39;58.06
70089;HTU21D;57460;47.134;19.888;2023-06-24T07:41:32;26.51;55.87
70089;HTU21D;57460;47.134;19.888;2023-06-24T07:44:01;26.49;57.13
70089;HTU21D;57460;47.134;19.888;2023-06-24T07:46:28;26.67;56.89
70089;HTU21D;57460;47.134;19.888;2023-06-24T07:48:56;26.78;57.10
70089;HTU21D;57460;47.134;19.888;2023-06-24T07:51:22;27.05;56.81
70089;HTU21D;57460;47.134;19.888;2023-06-24T07:53:48;27.26;55.55
70089;HTU21D;57460;47.134;19.888;2023-06-24T07:56:14;27.36;55.18
70089;HTU21D;57460;47.134;19.888;2023-06-24T07:58:40;27.39;54.10
70089;HTU21D;57460;47.134;19.888;2023-06-24T08:01:11;27.55;54.15
70089;HTU21D;57460;47.134;19.888;2023-06-24T08:03:39;27.56;53.96
70089;HTU21D;57460;47.134;19.888;2023-06-24T08:06:05;27.58;53.70
70089;HTU21D;57460;47.134;19.888;2023-06-24T08:08:31;27.49;54.41
70089;HTU21D;57460;47.134;19.888;2023-06-24T08:10:57;27.26;54.13
70089;HTU21D;57460;47.134;19.888;2023-06-24T08:13:23;27.11;54.53
70089;HTU21D;57460;47.134;19.888;2023-06-24T08:15:49;27.09;55.04
70089;HTU21D;57460;47.134;19.888;2023-06-24T08:18:20;27.16;54.73
70089;HTU21D;57460;47.134;19.888;2023-06-24T08:20:46;27.25;55.15
70089;HTU21D;57460;47.134;19.888;2023-06-24T08:23:12;27.42;55.10
70089;HTU21D;57460;47.134;19.888;2023-06-24T08:25:39;27.54;54.06
70089;HTU21D;57460;47.134;19.888;2023-06-24T08:28:05;27.55;54.58
70089;HTU21D;57460;47.134;19.888;2023-06-24T08:30:32;27.68;53.73
70089;HTU21D;57460;47.134;19.888;2023-06-24T08:32:59;27.91;54.17
70089;HTU21D;57460;47.134;19.888;2023-06-24T08:35:30;28.06;53.52
70089;HTU21D;57460;47.134;19.888;2023-06-24T08:37:55;27.99;53.09
70089;HTU21D;57460;47.134;19.888;2023-06-24T08:40:21;28.24;53.52
70089;HTU21D;57460;47.134;19.888;2023-06-24T08:42:48;28.52;53.16
70089;HTU21D;57460;47.134;19.888;2023-06-24T08:45:14;28.86;51.71
70089;HTU21D;57460;47.134;19.888;2023-06-24T08:47:50;28.88;47.96
70089;HTU21D;57460;47.134;19.888;2023-06-24T08:50:18;28.92;51.10
70089;HTU21D;57460;47.134;19.888;2023-06-24T08:52:51;28.98;51.04
70089;HTU21D;57460;47.134;19.888;2023-06-24T08:55:20;29.12;51.23
70089;HTU21D;57460;47.134;19.888;2023-06-24T08:57:47;29.16;49.67
70089;HTU21D;57460;47.134;19.888;2023-06-24T09:00:14;28.82;48.57
70089;HTU21D;57460;47.134;19.888;2023-06-24T09:02:40;28.82;49.62
70089;HTU21D;57460;47.134;19.888;2023-06-24T09:05:07;29.02;51.34
70089;HTU21D;57460;47.134;19.888;2023-06-24T09:07:33;29.31;49.95
70089;HTU21D;57460;47.134;19.888;2023-06-24T09:10:00;29.36;50.32
70089;HTU21D;57460;47.134;19.888;2023-06-24T09:12:32;29.50;48.60
70089;HTU21D;57460;47.134;19.888;2023-06-24T09:14:58;29.65;47.77
70089;HTU21D;57460;47.134;19.888;2023-06-24T09:17:24;29.83;45.78
70089;HTU21D;57460;47.134;19.888;2023-06-24T09:19:50;29.76;45.51
70089;HTU21D;57460;47.134;19.888;2023-06-24T09:22:17;29.86;48.63
70089;HTU21D;57460;47.134;19.888;2023-06-24T09:24:48;29.95;44.35
70089;HTU21D;57460;47.134;19.888;2023-06-24T09:27:24;29.92;45.19
70089;HTU21D;57460;47.134;19.888;2023-06-24T09:29:50;29.90;48.06
70089;HTU21D;57460;47.134;19.888;2023-06-24T09:32:18;30.04;48.27
70089;HTU21D;57460;47.134;19.888;2023-06-24T09:34:44;30.18;48.21
70089;HTU21D;57460;47.134;19.888;2023-06-24T09:37:10;30.31;48.14
70089;HTU21D;57460;47.134;19.888;2023-06-24T09:39:40;30.51;47.15
70089;HTU21D;57460;47.134;19.888;2023-06-24T09:42:06;30.91;46.63
70089;HTU21D;57460;47.134;19.888;2023-06-24T09:44:33;30.85;43.00
70089;HTU21D;57460;47.134;19.888;2023-06-24T09:46:59;30.80;45.13
70089;HTU21D;57460;47.134;19.888;2023-06-24T09:49:25;30.92;44.58
70089;HTU21D;57460;47.134;19.888;2023-06-24T09:51:56;30.95;42.18
70089;HTU21D;57460;47.134;19.888;2023-06-24T09:54:25;31.01;44.32
70089;HTU21D;57460;47.134;19.888;2023-06-24T09:56:54;31.34;45.19
70089;HTU21D;57460;47.134;19.888;2023-06-24T09:59:21;31.34;44.77
70089;HTU21D;57460;47.134;19.888;2023-06-24T10:01:51;31.58;44.70
70089;HTU21D;57460;47.134;19.888;2023-06-24T10:04:18;31.70;43.67
70089;HTU21D;57460;47.134;19.888;2023-06-24T10:06:45;31.51;39.81
70089;HTU21D;57460;47.134;19.888;2023-06-24T10:09:12;31.18;39.76
70089;HTU21D;57460;47.134;19.888;2023-06-24T10:11:39;31.12;44.10
70089;HTU21D;57460;47.134;19.888;2023-06-24T10:14:06;30.92;43.09
70089;HTU21D;57460;47.134;19.888;2023-06-24T10:16:32;30.57;41.43
70089;HTU21D;57460;47.134;19.888;2023-06-24T10:19:02;30.06;41.28
70089;HTU21D;57460;47.134;19.888;2023-06-24T10:21:45;29.94;45.04
70089;HTU21D;57460;47.134;19.888;2023-06-24T10:24:13;29.72;44.13
70089;HTU21D;57460;47.134;19.888;2023-06-24T10:26:40;29.47;42.81
70089;HTU21D;57460;47.134;19.888;2023-06-24T10:37:03;29.06;44.57
70089;HTU21D;57460;47.134;19.888;2023-06-24T10:39:52;28.98;47.45
70089;HTU21D;57460;47.134;19.888;2023-06-24T10:42:38;28.93;46.34
70089;HTU21D;57460;47.134;19.888;2023-06-24T10:47:46;29.09;47.60
70089;HTU21D;57460;47.134;19.888;2023-06-24T10:50:19;29.05;46.71
70089;HTU21D;57460;47.134;19.888;2023-06-24T10:52:48;29.07;47.22
70089;HTU21D;57460;47.134;19.888;2023-06-24T10:55:17;29.15;47.34
70089;HTU21D;57460;47.134;19.888;2023-06-24T10:57:44;29.35;47.01
70089;HTU21D;57460;47.134;19.888;2023-06-24T11:00:12;29.48;46.65
70089;HTU21D;57460;47.134;19.888;2023-06-24T11:02:38;29.53;46.76
70089;HTU21D;57460;47.134;19.888;2023-06-24T11:05:05;29.71;46.47
70089;HTU21D;57460;47.134;19.888;2023-06-24T11:07:37;29.74;46.73
70089;HTU21D;57460;47.134;19.888;2023-06-24T11:12:34;29.88;46.00
70089;HTU21D;57460;47.134;19.888;2023-06-24T11:15:05;29.75;46.50
70089;HTU21D;57460;47.134;19.888;2023-06-24T11:17:36;29.65;45.39
70089;HTU21D;57460;47.134;19.888;2023-06-24T11:20:07;29.57;44.36
70089;HTU21D;57460;47.134;19.888;2023-06-24T11:22:34;29.66;46.89
70089;HTU21D;57460;47.134;19.888;2023-06-24T11:25:00;29.89;46.88
70089;HTU21D;57460;47.134;19.888;2023-06-24T11:27:30;30.17;45.12
70089;HTU21D;57460;47.134;19.888;2023-06-24T11:29:58;30.45;45.81
70089;HTU21D;57460;47.134;19.888;2023-06-24T11:32:36;30.78;44.85
70089;HTU21D;57460;47.134;19.888;2023-06-24T11:35:13;30.89;43.03
70089;HTU21D;57460;47.134;19.888;2023-06-24T11:37:46;31.13;43.79
70089;HTU21D;57460;47.134;19.888;2023-06-24T11:40:17;30.94;44.00
70089;HTU21D;57460;47.134;19.888;2023-06-24T11:42:45;30.87;41.54
70089;HTU21D;57460;47.134;19.888;2023-06-24T11:45:20;30.89;43.00
70089;HTU21D;57460;47.134;19.888;2023-06-24T11:47:47;30.89;45.03
70089;HTU21D;57460;47.134;19.888;2023-06-24T11:50:14;30.94;45.11
70089;HTU21D;57460;47.134;19.888;2023-06-24T11:52:42;30.72;44.00
70089;HTU21D;57460;47.134;19.888;2023-06-24T11:55:25;30.63;45.28
70089;HTU21D;57460;47.134;19.888;2023-06-24T11:57:55;30.62;44.61
70089;HTU21D;57460;47.134;19.888;2023-06-24T12:00:29;30.48;45.19
70089;HTU21D;57460;47.134;19.888;2023-06-24T12:03:01;30.22;45.50
70089;HTU21D;57460;47.134;19.888;2023-06-24T12:05:33;30.12;46.20
70089;HTU21D;57460;47.134;19.888;2023-06-24T12:08:05;30.06;46.99
70089;HTU21D;57460;47.134;19.888;2023-06-24T12:10:32;30.05;46.78
70089;HTU21D;57460;47.134;19.888;2023-06-24T12:13:00;30.03;46.44
70089;HTU21D;57460;47.134;19.888;2023-06-24T12:15:27;30.06;46.49
70089;HTU21D;57460;47.134;19.888;2023-06-24T12:17:54;30.06;46.54
70089;HTU21D;57460;47.134;19.888;2023-06-24T12:20:21;30.22;46.38
70089;HTU21D;57460;47.134;19.888;2023-06-24T12:22:49;30.34;46.20
70089;HTU21D;57460;47.134;19.888;2023-06-24T12:25:17;30.44;46.49
70089;HTU21D;57460;47.134;19.888;2023-06-24T12:27:43;30.54;45.42
70089;HTU21D;57460;47.134;19.888;2023-06-24T12:30:10;30.54;44.51
70089;HTU21D;57460;47.134;19.888;2023-06-24T12:32:37;30.49;45.31
70089;HTU21D;57460;47.134;19.888;2023-06-24T12:35:04;30.51;45.31
70089;HTU21D;57460;47.134;19.888;2023-06-24T12:37:31;30.41;45.60
70089;HTU21D;57460;47.134;19.888;2023-06-24T12:39:58;30.36;45.63
70089;HTU21D;57460;47.134;19.888;2023-06-24T12:42:25;30.21;44.67
70089;HTU21D;57460;47.134;19.888;2023-06-24T12:44:51;30.23;45.69
70089;HTU21D;57460;47.134;19.888;2023-06-24T12:47:18;30.21;45.02
70089;HTU21D;57460;47.134;19.888;2023-06-24T12:49:44;30.23;46.11
70089;HTU21D;57460;47.134;19.888;2023-06-24T12:52:12;30.33;45.97
70089;HTU21D;57460;47.134;19.888;2023-06-24T12:54:39;30.25;44.27
70089;HTU21D;57460;47.134;19.888;2023-06-24T12:57:05;30.24;45.82
70089;HTU21D;57460;47.134;19.888;2023-06-24T12:59:31;30.41;45.53
70089;HTU21D;57460;47.134;19.888;2023-06-24T13:01:57;30.67;45.84
70089;HTU21D;57460;47.134;19.888;2023-06-24T13:04:22;31.07;45.26
70089;HTU21D;57460;47.134;19.888;2023-06-24T13:06:52;31.48;44.00
70089;HTU21D;57460;47.134;19.888;2023-06-24T13:09:19;31.65;40.54
70089;HTU21D;57460;47.134;19.888;2023-06-24T13:11:45;31.59;43.32
70089;HTU21D;57460;47.134;19.888;2023-06-24T13:14:10;31.59;42.03
70089;HTU21D;57460;47.134;19.888;2023-06-24T13:16:36;31.67;42.36
70089;HTU21D;57460;47.134;19.888;2023-06-24T13:19:03;31.68;43.04
70089;HTU21D;57460;47.134;19.888;2023-06-24T13:21:29;31.64;43.24
70089;HTU21D;57460;47.134;19.888;2023-06-24T13:23:55;31.53;39.95
70089;HTU21D;57460;47.134;19.888;2023-06-24T13:26:21;31.54;41.96
70089;HTU21D;57460;47.134;19.888;2023-06-24T13:28:47;31.52;38.60
70089;HTU21D;57460;47.134;19.888;2023-06-24T13:31:15;31.45;39.66
70089;HTU21D;57460;47.134;19.888;2023-06-24T13:33:41;31.59;42.99
70089;HTU21D;57460;47.134;19.888;2023-06-24T13:36:13;31.61;40.30
70089;HTU21D;57460;47.134;19.888;2023-06-24T13:38:51;31.74;41.80
70089;HTU21D;57460;47.134;19.888;2023-06-24T13:41:16;32.02;41.56
70089;HTU21D;57460;47.134;19.888;2023-06-24T13:43:42;32.04;40.97
70089;HTU21D;57460;47.134;19.888;2023-06-24T13:46:08;32.26;41.13
70089;HTU21D;57460;47.134;19.888;2023-06-24T13:48:34;32.31;40.59
70089;HTU21D;57460;47.134;19.888;2023-06-24T13:51:00;32.18;38.71
70089;HTU21D;57460;47.134;19.888;2023-06-24T13:53:26;32.15;41.56
70089;HTU21D;57460;47.134;19.888;2023-06-24T13:55:52;32.23;41.37
70089;HTU21D;57460;47.134;19.888;2023-06-24T13:58:18;32.19;41.71
70089;HTU21D;57460;47.134;19.888;2023-06-24T14:00:43;32.35;40.29
70089;HTU21D;57460;47.134;19.888;2023-06-24T14:03:09;32.48;40.86
70089;HTU21D;57460;47.134;19.888;2023-06-24T14:05:35;32.12;39.27
70089;HTU21D;57460;47.134;19.888;2023-06-24T14:08:01;32.03;40.84
70089;HTU21D;57460;47.134;19.888;2023-06-24T14:10:27;32.00;41.42
70089;HTU21D;57460;47.134;19.888;2023-06-24T14:12:53;32.03;40.03
70089;HTU21D;57460;47.134;19.888;2023-06-24T14:15:18;32.18;40.30
70089;HTU21D;57460;47.134;19.888;2023-06-24T14:17:44;32.25;39.03
70089;HTU21D;57460;47.134;19.888;2023-06-24T14:20:11;32.30;40.49
70089;HTU21D;57460;47.134;19.888;2023-06-24T14:22:36;32.39;40.22
70089;HTU21D;57460;47.134;19.888;2023-06-24T14:25:02;32.31;38.96
70089;HTU21D;57460;47.134;19.888;2023-06-24T14:27:28;32.17;40.09
70089;HTU21D;57460;47.134;19.888;2023-06-24T14:29:54;32.20;40.62
70089;HTU21D;57460;47.134;19.888;2023-06-24T14:32:20;32.22;40.01
70089;HTU21D;57460;47.134;19.888;2023-06-24T14:34:46;32.32;40.17
70089;HTU21D;57460;47.134;19.888;2023-06-24T14:37:12;32.15;37.45
70089;HTU21D;57460;47.134;19.888;2023-06-24T14:39:40;32.20;40.18
70089;HTU21D;57460;47.134;19.888;2023-06-24T14:42:06;32.44;40.17
70089;HTU21D;57460;47.134;19.888;2023-06-24T14:44:32;32.53;37.74
70089;HTU21D;57460;47.134;19.888;2023-06-24T14:46:57;32.59;38.87
70089;HTU21D;57460;47.134;19.888;2023-06-24T14:49:26;32.66;35.62
70089;HTU21D;57460;47.134;19.888;2023-06-24T14:51:52;32.50;38.33
70089;HTU21D;57460;47.134;19.888;2023-06-24T14:54:18;32.40;38.04
70089;HTU21D;57460;47.134;19.888;2023-06-24T14:56:44;32.40;38.90
70089;HTU21D;57460;47.134;19.888;2023-06-24T14:59:11;32.25;39.09
70089;HTU21D;57460;47.134;19.888;2023-06-24T15:01:37;32.04;38.66
70089;HTU21D;57460;47.134;19.888;2023-06-24T15:04:03;32.17;39.46
70089;HTU21D;57460;47.134;19.888;2023-06-24T15:06:29;32.37;39.73
70089;HTU21D;57460;47.134;19.888;2023-06-24T15:08:55;32.48;39.48
70089;HTU21D;57460;47.134;19.888;2023-06-24T15:11:21;32.46;36.80
70089;HTU21D;57460;47.134;19.888;2023-06-24T15:13:47;32.52;39.30
70089;HTU21D;57460;47.134;19.888;2023-06-24T15:16:12;32.30;38.85
70089;HTU21D;57460;47.134;19.888;2023-06-24T15:18:50;32.34;39.38
70089;HTU21D;57460;47.134;19.888;2023-06-24T15:21:16;32.34;39.14
70089;HTU21D;57460;47.134;19.888;2023-06-24T15:23:42;32.29;39.35
70089;HTU21D;57460;47.134;19.888;2023-06-24T15:26:08;32.04;39.68
70089;HTU21D;57460;47.134;19.888;2023-06-24T15:28:34;31.87;40.29
70089;HTU21D;57460;47.134;19.888;2023-06-24T15:31:00;31.70;40.84
70089;HTU21D;57460;47.134;19.888;2023-06-24T15:35:52;31.49;40.80
70089;HTU21D;57460;47.134;19.888;2023-06-24T15:38:18;31.45;41.33
70089;HTU21D;57460;47.134;19.888;2023-06-24T15:40:44;31.67;40.93
70089;HTU21D;57460;47.134;19.888;2023-06-24T15:43:10;31.61;41.75
70089;HTU21D;57460;47.134;19.888;2023-06-24T15:45:37;31.74;40.84
70089;HTU21D;57460;47.134;19.888;2023-06-24T15:48:04;31.78;40.95
70089;HTU21D;57460;47.134;19.888;2023-06-24T15:50:30;31.81;41.30
70089;HTU21D;57460;47.134;19.888;2023-06-24T15:52:56;31.88;41.26
70089;HTU21D;57460;47.134;19.888;2023-06-24T15:55:22;31.98;40.91
70089;HTU21D;57460;47.134;19.888;2023-06-24T15:57:48;31.87;41.88
70089;HTU21D;57460;47.134;19.888;2023-06-24T16:00:14;31.71;41.51
70089;HTU21D;57460;47.134;19.888;2023-06-24T16:02:41;31.75;41.70
70089;HTU21D;57460;47.134;19.888;2023-06-24T16:05:07;31.69;41.73
70089;HTU21D;57460;47.134;19.888;2023-06-24T16:07:34;31.73;41.54
70089;HTU21D;57460;47.134;19.888;2023-06-24T16:10:02;31.83;41.72
70089;HTU21D;57460;47.134;19.888;2023-06-24T16:12:30;31.82;41.78
70089;HTU21D;57460;47.134;19.888;2023-06-24T16:14:56;31.89;41.79
70089;HTU21D;57460;47.134;19.888;2023-06-24T16:17:25;31.83;41.41
70089;HTU21D;57460;47.134;19.888;2023-06-24T16:19:51;31.74;41.14
70089;HTU21D;57460;47.134;19.888;2023-06-24T16:22:16;31.73;41.94
70089;HTU21D;57460;47.134;19.888;2023-06-24T16:24:42;31.64;42.10
70089;HTU21D;57460;47.134;19.888;2023-06-24T16:27:09;31.57;41.43
70089;HTU21D;57460;47.134;19.888;2023-06-24T16:29:35;31.46;43.46
70089;HTU21D;57460;47.134;19.888;2023-06-24T16:32:01;31.24;41.90
70089;HTU21D;57460;47.134;19.888;2023-06-24T16:34:28;31.18;42.88
70089;HTU21D;57460;47.134;19.888;2023-06-24T16:36:56;31.13;43.29
70089;HTU21D;57460;47.134;19.888;2023-06-24T16:39:22;31.13;43.36
70089;HTU21D;57460;47.134;19.888;2023-06-24T16:41:48;31.09;44.03
70089;HTU21D;57460;47.134;19.888;2023-06-24T16:44:14;30.96;43.40
70089;HTU21D;57460;47.134;19.888;2023-06-24T16:46:40;30.84;44.10
70089;HTU21D;57460;47.134;19.888;2023-06-24T16:49:06;30.68;44.23
70089;HTU21D;57460;47.134;19.888;2023-06-24T16:51:35;30.53;44.44
70089;HTU21D;57460;47.134;19.888;2023-06-24T16:54:02;30.44;44.90
70089;HTU21D;57460;47.134;19.888;2023-06-24T16:56:28;30.37;45.41
70089;HTU21D;57460;47.134;19.888;2023-06-24T16:58:54;30.34;45.79
70089;HTU21D;57460;47.134;19.888;2023-06-24T17:01:20;30.18;47.04
70089;HTU21D;57460;47.134;19.888;2023-06-24T17:03:46;30.19;45.77
70089;HTU21D;57460;47.134;19.888;2023-06-24T17:06:12;29.98;47.11
70089;HTU21D;57460;47.134;19.888;2023-06-24T17:08:39;29.86;47.15
70089;HTU21D;57460;47.134;19.888;2023-06-24T17:11:04;29.76;48.60
70089;HTU21D;57460;47.134;19.888;2023-06-24T17:13:30;29.73;47.35
70089;HTU21D;57460;47.134;19.888;2023-06-24T17:15:58;29.58;48.16
70089;HTU21D;57460;47.134;19.888;2023-06-24T17:18:24;29.47;48.26
70089;HTU21D;57460;47.134;19.888;2023-06-24T17:20:50;29.13;50.19
70089;HTU21D;57460;47.134;19.888;2023-06-24T17:23:15;29.12;48.51
70089;HTU21D;57460;47.134;19.888;2023-06-24T17:25:43;29.04;49.77
70089;HTU21D;57460;47.134;19.888;2023-06-24T17:28:14;29.00;49.52
70089;HTU21D;57460;47.134;19.888;2023-06-24T17:30:40;28.97;50.49
70089;HTU21D;57460;47.134;19.888;2023-06-24T17:33:05;28.95;49.16
70089;HTU21D;57460;47.134;19.888;2023-06-24T17:35:31;28.89;50.34
70089;HTU21D;57460;47.134;19.888;2023-06-24T17:37:57;28.68;50.04
70089;HTU21D;57460;47.134;19.888;2023-06-24T17:40:23;28.47;50.32
70089;HTU21D;57460;47.134;19.888;2023-06-24T17:42:48;28.41;51.50
70089;HTU21D;57460;47.134;19.888;2023-06-24T17:45:14;28.29;50.90
70089;HTU21D;57460;47.134;19.888;2023-06-24T17:47:40;28.21;51.08
70089;HTU21D;57460;47.134;19.888;2023-06-24T17:50:06;28.06;52.93
70089;HTU21D;57460;47.134;19.888;2023-06-24T17:52:35;28.05;52.91
70089;HTU21D;57460;47.134;19.888;2023-06-24T17:55:00;28.04;52.31
70089;HTU21D;57460;47.134;19.888;2023-06-24T17:57:27;28.01;51.95
70089;HTU21D;57460;47.134;19.888;2023-06-24T17:59:53;27.81;52.80
70089;HTU21D;57460;47.134;19.888;2023-06-24T18:02:18;27.63;54.30
70089;HTU21D;57460;47.134;19.888;2023-06-24T18:04:45;27.58;53.40
70089;HTU21D;57460;47.134;19.888;2023-06-24T18:07:11;27.59;53.14
70089;HTU21D;57460;47.134;19.888;2023-06-24T18:09:37;27.60;53.29
70089;HTU21D;57460;47.134;19.888;2023-06-24T18:12:03;27.55;52.67
70089;HTU21D;57460;47.134;19.888;2023-06-24T18:14:29;27.50;52.75
70089;HTU21D;57460;47.134;19.888;2023-06-24T18:16:55;27.42;53.90
70089;HTU21D;57460;47.134;19.888;2023-06-24T18:19:20;27.31;54.25
70089;HTU21D;57460;47.134;19.888;2023-06-24T18:21:46;27.24;54.65
70089;HTU21D;57460;47.134;19.888;2023-06-24T18:24:12;27.20;54.49
70089;HTU21D;57460;47.134;19.888;2023-06-24T18:26:38;27.08;54.37
70089;HTU21D;57460;47.134;19.888;2023-06-24T18:29:04;27.09;53.73
70089;HTU21D;57460;47.134;19.888;2023-06-24T18:31:30;26.96;55.55
70089;HTU21D;57460;47.134;19.888;2023-06-24T18:33:57;26.93;54.55
70089;HTU21D;57460;47.134;19.888;2023-06-24T18:36:23;26.84;54.63
70089;HTU21D;57460;47.134;19.888;2023-06-24T18:38:49;26.71;55.95
70089;HTU21D;57460;47.134;19.888;2023-06-24T18:41:14;26.57;55.71
70089;HTU21D;57460;47.134;19.888;2023-06-24T18:43:41;26.52;56.33
70089;HTU21D;57460;47.134;19.888;2023-06-24T18:46:07;26.43;56.16
70089;HTU21D;57460;47.134;19.888;2023-06-24T18:48:33;26.41;55.37
70089;HTU21D;57460;47.134;19.888;2023-06-24T18:50:59;26.34;56.48
70089;HTU21D;57460;47.134;19.888;2023-06-24T18:53:25;26.28;57.53
70089;HTU21D;57460;47.134;19.888;2023-06-24T18:55:51;26.23;57.61
70089;HTU21D;57460;47.134;19.888;2023-06-24T18:58:17;26.21;57.54
70089;HTU21D;57460;47.134;19.888;2023-06-24T19:00:43;26.11;58.64
70089;HTU21D;57460;47.134;19.888;2023-06-24T19:03:09;26.05;58.93
70089;HTU21D;57460;47.134;19.888;2023-06-24T19:05:35;25.97;59.51